sim
Sign-in with your pilot id or email,
or register
Callsign
Passwort

Schedule Details

Flight Number: RYR4774 (3)
Departure: Milan Bergamo Il Caravaggio International Airport (LIME) at 17:05
Arrival: Thessaloniki International Airport (LGTS) at 19:10
Route: Ryanair Passenger Schedule. Enter filed route here before submitting Pirep.

Weather Information
Getting current METAR information for LIME 252250Z 03004KT 9999 SCT035 BKN070 13/11 Q1016 NOSIG
Getting current METAR information for LGTS 252250Z VRB02KT CAVOK 15/12 Q1020 NOSIG

Schedule Frequency

Route Map